Thunderstorms From: 15-12-2017 06:00 Until: 16-12-2017 06:00 warning for: Thunderstorms Level: Yellow info button

Although rather usual in this region, locally or potentially dangerous phenomena are expected. (such as local winds, summer thunderstorms, rising streams or high waves) Be aware and pay attention to the latest weather updates, especially if you carry out activities exposed to weather or close to a stream or shoreline. 


Meteo18 Weather Cam more information Meteo18 Weather Cam


warning for Thunderstorms more information blitzortung!


Rain radar more information rain snow radar


Visit our other weather sites:

Template documentation
and downloads

And another site



Weather Underground History page Text

Daily Summary for August 2, 2017 Units:  English    Metric   Both
« Previous Day
Next Day »
Daily Weekly Monthly Yearly Custom
  High: Low: Average:
Temperature: 85.1 °F 59.9 °F 72.3 °F
Dew Point: 68 °F 58.6 °F 63.5 °F
Humidity: 97 % 51 % 77 %
Wind Speed: 13 mph 0 mph 2.1 mph
Wind Gust: 15 mph - -
Wind:- - SW
Pressure: 30.1 in 30 in -
Precipitation: 0.01 in    
Historical Graphs
 
 
Tabular Data for August 2, 2017
Time Temperature Dew Point Pressure Wind Wind Speed Wind Gust Humidity Rainfall Rate (Hourly)
00:02 63.9 °F 61.2 °F 30.1 in Calm   2 mph 91 % 0 in
00:07 63.7 °F 61.3 °F 30.1 in Calm   2 mph 92 % 0 in
00:12 63.7 °F 61.3 °F 30.1 in Calm   2 mph 92 % 0 in
00:17 63.7 °F 61.3 °F 30.1 in Calm     92 % 0 in
00:22 63.5 °F 61.2 °F 30.1 in Calm     92 % 0 in
00:27 63.3 °F 61 °F 30.1 in Calm     92 % 0 in
00:32 63.1 °F 60.8 °F 30.1 in Calm     92 % 0 in
00:37 63.1 °F 60.8 °F 30.1 in Calm     92 % 0 in
00:42 63 °F 61 °F 30.1 in Calm     93 % 0 in
00:52 63 °F 61 °F 30.1 in Calm   1 mph 93 % 0 in
00:57 62.8 °F 60.8 °F 30.1 in Calm   1 mph 93 % 0 in
01:02 62.4 °F 60.4 °F 30.1 in Calm   1 mph 93 % 0 in
01:07 62.2 °F 60.3 °F 30.1 in Calm   1 mph 93 % 0 in
01:12 62.1 °F 60.3 °F 30.1 in Calm   1 mph 94 % 0 in
01:22 62.1 °F 60.3 °F 30.1 in Calm     94 % 0 in
01:32 62.2 °F 60.4 °F 30.1 in Calm     94 % 0 in
01:37 62.2 °F 60.4 °F 30.1 in Calm     94 % 0 in
01:42 62.2 °F 60.4 °F 30.1 in Calm     94 % 0 in
01:47 61.9 °F 60.1 °F 30.1 in Calm     94 % 0 in
01:52 62.1 °F 60.6 °F 30.1 in Calm     95 % 0 in
02:02 62.1 °F 60.3 °F 30.1 in Calm     94 % 0 in
02:07 62.1 °F 60.3 °F 30.1 in Calm     94 % 0 in
02:12 62.1 °F 60.3 °F 30.1 in Calm     94 % 0 in
02:17 61.9 °F 60.1 °F 30.1 in Calm     94 % 0 in
02:22 61.5 °F 59.7 °F 30.1 in Calm     94 % 0 in
02:27 61.5 °F 59.7 °F 30.1 in Calm     94 % 0 in
02:32 61.5 °F 59.7 °F 30.1 in Calm     94 % 0 in
02:37 61.5 °F 59.7 °F 30.1 in Calm     94 % 0 in
02:42 61.3 °F 59.5 °F 30.1 in Calm     94 % 0 in
02:47 61.3 °F 59.5 °F 30.1 in Calm     94 % 0 in
02:52 61.2 °F 59.4 °F 30.1 in Calm     94 % 0 in
02:57 61.2 °F 59.7 °F 30.1 in Calm     95 % 0 in
03:02 61.2 °F 59.7 °F 30.1 in Calm     95 % 0 in
03:07 61.2 °F 59.7 °F 30.1 in Calm     95 % 0 in
03:12 61.2 °F 59.7 °F 30.1 in Calm     95 % 0 in
03:17 61.2 °F 59.7 °F 30.1 in Calm     95 % 0 in
03:22 61 °F 59.5 °F 30.1 in Calm     95 % 0 in
03:27 61 °F 59.5 °F 30.1 in Calm     95 % 0 in
03:32 61 °F 59.5 °F 30.1 in Calm     95 % 0 in
03:37 61.2 °F 59.7 °F 30.1 in Calm     95 % 0 in
03:42 61.2 °F 59.7 °F 30.1 in Calm     95 % 0 in
03:47 61 °F 59.5 °F 30.1 in Calm     95 % 0 in
03:52 60.8 °F 59.4 °F 30.1 in Calm     95 % 0 in
03:57 60.6 °F 59.2 °F 30.1 in Calm     95 % 0 in
04:02 60.6 °F 59.2 °F 30.1 in Calm     95 % 0 in
04:07 60.6 °F 59.2 °F 30.1 in Calm     95 % 0 in
04:12 60.6 °F 59.2 °F 30.1 in Calm     95 % 0 in
04:17 60.6 °F 59.2 °F 30.1 in Calm     95 % 0 in
04:22 60.6 °F 59.2 °F 30.1 in Calm     95 % 0 in
04:27 60.4 °F 59 °F 30.1 in Calm     95 % 0 in
04:32 60.4 °F 59 °F 30.1 in Calm     95 % 0 in
04:37 60.4 °F 59 °F 30.1 in Calm     95 % 0 in
04:42 60.3 °F 58.8 °F 30.1 in Calm     95 % 0 in
04:47 60.1 °F 59 °F 30.1 in Calm     96 % 0 in
04:52 60.4 °F 59.4 °F 30.1 in Calm     96 % 0 in
04:57 60.4 °F 59.4 °F 30.1 in NNE 1 mph   96 % 0 in
05:02 60.6 °F 59.5 °F 30.1 in North 2 mph 2 mph 96 % 0 in
05:12 61.2 °F 60.1 °F 30.1 in Calm   2 mph 96 % 0 in
05:17 61.2 °F 60.1 °F 30.1 in Calm   2 mph 96 % 0 in
05:22 60.8 °F 59.4 °F 30.1 in NE 1 mph 1 mph 95 % 0 in
05:32 60.6 °F 59.2 °F 30.1 in Calm   1 mph 95 % 0 in
05:37 60.6 °F 59.2 °F 30.1 in Calm   1 mph 95 % 0 in
05:42 60.3 °F 58.8 °F 30.1 in Calm   1 mph 95 % 0 in
05:47 60.1 °F 58.6 °F 30.1 in NNE 1 mph 1 mph 95 % 0 in
05:52 60.1 °F 58.6 °F 30.1 in Calm   1 mph 95 % 0 in
05:57 60.3 °F 59.2 °F 30.1 in Calm   1 mph 96 % 0 in
06:02 60.3 °F 59.2 °F 30.1 in Calm   1 mph 96 % 0 in
06:07 60.3 °F 59.2 °F 30.1 in Calm     96 % 0 in
06:12 60.3 °F 59.2 °F 30.1 in Calm   1 mph 96 % 0 in
06:17 60.1 °F 59 °F 30.1 in Calm   1 mph 96 % 0 in
06:22 60.1 °F 59 °F 30.1 in Calm   1 mph 96 % 0 in
06:27 60.1 °F 59 °F 30.1 in Calm     96 % 0 in
06:32 60.1 °F 59 °F 30.1 in Calm     96 % 0 in
06:37 59.9 °F 58.8 °F 30.1 in Calm     96 % 0 in
06:42 60.1 °F 59 °F 30.1 in Calm     96 % 0 in
06:47 60.1 °F 59 °F 30.1 in Calm     96 % 0 in
06:52 60.1 °F 59 °F 30.1 in Calm     96 % 0 in
07:02 60.1 °F 59 °F 30.1 in Calm     96 % 0 in
07:07 60.1 °F 59 °F 30.1 in Calm     96 % 0 in
07:12 60.3 °F 59.2 °F 30.1 in Calm   1 mph 96 % 0 in
07:17 60.3 °F 59.2 °F 30.1 in Calm   1 mph 96 % 0 in
07:22 60.4 °F 59.4 °F 30.1 in Calm   2 mph 96 % 0 in
07:27 60.4 °F 59.4 °F 30.1 in Calm   2 mph 96 % 0 in
07:32 60.3 °F 59.2 °F 30.1 in Calm   2 mph 96 % 0 in
07:37 60.3 °F 59.2 °F 30.1 in Calm   1 mph 96 % 0 in
07:42 60.4 °F 59.4 °F 30.1 in Calm   1 mph 96 % 0 in
07:47 60.6 °F 59.7 °F 30.1 in Calm     97 % 0 in
07:52 60.8 °F 59.9 °F 30.1 in Calm     97 % 0 in
07:57 61.2 °F 60.3 °F 30.1 in Calm     97 % 0 in
08:02 61.3 °F 60.4 °F 30.1 in Calm     97 % 0 in
08:07 61.5 °F 60.6 °F 30.1 in Calm     97 % 0 in
08:12 61.7 °F 60.8 °F 30.1 in South 2 mph   97 % 0 in
08:17 61.9 °F 61 °F 30.1 in SW 2 mph 3 mph 97 % 0 in
08:22 62.1 °F 61.2 °F 30.1 in South 1 mph 3 mph 97 % 0 in
08:32 62.2 °F 61.3 °F 30.1 in Calm   3 mph 97 % 0 in
08:37 62.4 °F 61.5 °F 30.1 in Calm   2 mph 97 % 0 in
08:42 62.8 °F 61.9 °F 30.1 in SW 1 mph 2 mph 97 % 0 in
08:47 63 °F 62.1 °F 30.1 in Calm   2 mph 97 % 0 in
08:52 63.3 °F 62.4 °F 30.1 in SSE 1 mph 2 mph 97 % 0 in
08:57 63.7 °F 62.8 °F 30.1 in South 1 mph 4 mph 97 % 0 in
09:02 63.7 °F 62.8 °F 30.1 in SSW 1 mph 4 mph 97 % 0 in
09:07 63.9 °F 63 °F 30.1 in WSW 1 mph 4 mph 97 % 0 in
09:12 64 °F 63.1 °F 30.1 in Calm   3 mph 97 % 0 in
09:17 64.2 °F 63.3 °F 30.1 in WSW 1 mph 3 mph 97 % 0 in
09:22 64.6 °F 63.7 °F 30.1 in SW 2 mph 2 mph 97 % 0 in
09:27 64.6 °F 63.5 °F 30.1 in SSE 2 mph 2 mph 96 % 0 in
09:32 64.8 °F 63.9 °F 30.1 in SW 2 mph 2 mph 97 % 0 in
09:37 64.8 °F 63.7 °F 30.1 in Calm   4 mph 96 % 0 in
09:42 65.1 °F 64.2 °F 30.1 in SSW 3 mph 4 mph 97 % 0 in
09:47 65.1 °F 64 °F 30.1 in Calm   4 mph 96 % 0 in
09:52 65.5 °F 64.2 °F 30.1 in South 1 mph 4 mph 96 % 0 in
09:57 65.8 °F 64.6 °F 30.1 in SSE 2 mph 4 mph 96 % 0 in
10:02 65.8 °F 64.4 °F 30.1 in South 2 mph 4 mph 95 % 0.01 in
10:12 66.6 °F 65.3 °F 30.1 in WSW 2 mph 6 mph 96 % 0.01 in
10:17 66.7 °F 65.5 °F 30.1 in WSW 2 mph 6 mph 96 % 0.01 in
10:22 67.5 °F 66 °F 30.1 in SSW 1 mph 6 mph 95 % 0.01 in
10:27 68.4 °F 66.9 °F 30.1 in WSW 3 mph 5 mph 95 % 0.01 in
10:32 68.4 °F 66.2 °F 30.1 in SSW 1 mph 4 mph 93 % 0.01 in
10:37 69.1 °F 66.9 °F 30.1 in SSW 2 mph 4 mph 93 % 0.01 in
10:42 69.6 °F 66.9 °F 30.1 in Calm   4 mph 91 % 0.01 in
10:47 70.7 °F 67.6 °F 30.1 in Calm   3 mph 90 % 0.01 in
10:52 71.4 °F 67.1 °F 30.1 in Calm   3 mph 86 % 0.01 in
10:57 71.8 °F 66.7 °F 30.1 in South 1 mph 5 mph 84 % 0 in
11:02 72.3 °F 67.3 °F 30.1 in Calm   5 mph 84 % 0 in
11:07 73 °F 66.9 °F 30.1 in West 1 mph 5 mph 81 % 0 in
11:12 73.6 °F 66.7 °F 30.1 in West 2 mph 4 mph 79 % 0 in
11:17 73.9 °F 67.5 °F 30.1 in SW 1 mph 4 mph 80 % 0 in
11:22 74.1 °F 66.7 °F 30.1 in SW 2 mph 4 mph 78 % 0 in
11:27 74.7 °F 67.3 °F 30.1 in SW 2 mph 4 mph 78 % 0 in
11:32 75.4 °F 66.6 °F 30.1 in Calm   4 mph 74 % 0 in
11:37 75 °F 66.6 °F 30.1 in Calm   5 mph 75 % 0 in
11:42 75.9 °F 66.6 °F 30.1 in SW 3 mph 5 mph 73 % 0 in
11:47 76.3 °F 65.3 °F 30.1 in SW 1 mph 5 mph 69 % 0 in
11:52 76.6 °F 64.4 °F 30.1 in SSW 4 mph 5 mph 66 % 0 in
11:57 76.6 °F 64.9 °F 30.1 in SSE 2 mph 6 mph 67 % 0 in
12:02 76.8 °F 63.3 °F 30.1 in WSW 5 mph 6 mph 63 % 0 in
12:07 77 °F 64.8 °F 30.1 in South 3 mph 8 mph 66 % 0 in
12:12 77.4 °F 65.1 °F 30.1 in Calm   8 mph 66 % 0 in
12:17 77.5 °F 63.5 °F 30.1 in West 3 mph 8 mph 62 % 0 in
12:22 77.9 °F 63.3 °F 30.1 in WSW 3 mph 6 mph 61 % 0 in
12:27 78.3 °F 63.3 °F 30.1 in South 4 mph 6 mph 60 % 0 in
12:32 78.3 °F 63.3 °F 30.1 in SSW 7 mph 8 mph 60 % 0 in
12:37 78.1 °F 63.1 °F 30.1 in WSW 2 mph 10 mph 60 % 0 in
12:42 78.1 °F 62.6 °F 30.1 in SW 7 mph 10 mph 59 % 0 in
12:47 78.1 °F 62.6 °F 30.1 in WSW 1 mph 10 mph 59 % 0 in
12:52 78.4 °F 63.3 °F 30.1 in WSW 5 mph 7 mph 60 % 0 in
12:57 78.6 °F 63.1 °F 30.1 in WSW 2 mph 7 mph 59 % 0 in
13:02 78.4 °F 62.4 °F 30.1 in West 4 mph 7 mph 58 % 0 in
13:12 79 °F 63.9 °F 30.1 in SW 7 mph 7 mph 60 % 0 in
13:17 79.2 °F 64 °F 30.1 in SSW 6 mph 10 mph 60 % 0 in
13:22 79.2 °F 62.6 °F 30.1 in SW 5 mph 10 mph 57 % 0 in
13:27 79.5 °F 63.5 °F 30.1 in SW 2 mph 10 mph 58 % 0 in
13:32 79.7 °F 63.7 °F 30.1 in SW 7 mph 11 mph 58 % 0 in
13:37 79.9 °F 63.9 °F 30.1 in SW 6 mph 11 mph 58 % 0 in
13:42 79.9 °F 63.9 °F 30.1 in South 2 mph 11 mph 58 % 0 in
13:47 80.4 °F 63.9 °F 30.1 in South 5 mph 11 mph 57 % 0 in
13:52 80.8 °F 64.6 °F 30.1 in SW 7 mph 11 mph 58 % 0 in
13:57 80.8 °F 65.1 °F 30.1 in SSW 4 mph 9 mph 59 % 0 in
14:02 80.6 °F 64.4 °F 30.1 in SSW 4 mph 10 mph 58 % 0 in
14:12 81 °F 64.2 °F 30.1 in WSW 7 mph 10 mph 57 % 0 in
14:17 80.8 °F 64 °F 30.1 in Calm   9 mph 57 % 0 in
14:22 81.1 °F 64.4 °F 30.1 in SW 7 mph 9 mph 57 % 0 in
14:27 81.3 °F 63.7 °F 30.1 in SSW 2 mph 9 mph 55 % 0 in
14:32 81.3 °F 65.1 °F 30.1 in SSW 8 mph 9 mph 58 % 0 in
14:37 81 °F 63.3 °F 30.1 in SW 1 mph 10 mph 55 % 0 in
14:42 81.7 °F 63.9 °F 30.1 in WSW 5 mph 10 mph 55 % 0 in
14:47 81.7 °F 64.9 °F 30.1 in SW 5 mph 10 mph 57 % 0 in
14:52 81.9 °F 64.6 °F 30.1 in WSW 5 mph 10 mph 56 % 0 in
14:57 82 °F 63.7 °F 30.1 in SSW 7 mph 11 mph 54 % 0 in
15:02 81.9 °F 64.6 °F 30.1 in WSW 4 mph 12 mph 56 % 0 in
15:07 82.2 °F 64.4 °F 30.1 in WSW 7 mph 12 mph 55 % 0 in
15:12 82.2 °F 64.4 °F 30.1 in SW 4 mph 12 mph 55 % 0 in
15:17 82.2 °F 65.5 °F 30.1 in South 7 mph 10 mph 57 % 0 in
15:22 82 °F 64.2 °F 30.1 in SW 11 mph 11 mph 55 % 0 in
15:27 82 °F 64.2 °F 30.1 in SW 4 mph 15 mph 55 % 0 in
15:32 82.2 °F 64.4 °F 30.1 in WSW 1 mph 15 mph 55 % 0 in
15:37 82.6 °F 63.7 °F 30.1 in WSW 6 mph 15 mph 53 % 0 in
15:47 82.2 °F 63.3 °F 30.1 in WSW 2 mph 12 mph 53 % 0 in
15:52 82.6 °F 64.2 °F 30.1 in SW 5 mph 12 mph 54 % 0 in
15:57 82.9 °F 65.1 °F 30.1 in SSE 6 mph 11 mph 55 % 0 in
16:02 83.1 °F 64.2 °F 30.1 in SW 5 mph 11 mph 53 % 0 in
16:07 83.1 °F 63.7 °F 30.1 in SW 5 mph 11 mph 52 % 0 in
16:12 83.1 °F 64.8 °F 30.1 in West 7 mph 11 mph 54 % 0 in
16:17 83.5 °F 65.1 °F 30.1 in WSW 13 mph 13 mph 54 % 0 in
16:22 83.1 °F 63.1 °F 30.1 in WSW 2 mph 13 mph 51 % 0 in
16:27 83.7 °F 65.3 °F 30.1 in WSW 8 mph 13 mph 54 % 0 in
16:32 83.7 °F 65.8 °F 30.1 in WSW 2 mph 13 mph 55 % 0 in
16:37 83.8 °F 64.9 °F 30.1 in SW 1 mph 11 mph 53 % 0 in
16:42 83.8 °F 64.9 °F 30.1 in WSW 4 mph 11 mph 53 % 0 in
16:47 83.7 °F 64.2 °F 30.1 in WSW 7 mph 13 mph 52 % 0 in
16:52 83.7 °F 66.4 °F 30.1 in WSW 6 mph 13 mph 56 % 0 in
16:57 83.7 °F 64.2 °F 30.1 in SW 2 mph 13 mph 52 % 0 in
17:02 83.7 °F 65.3 °F 30.1 in West 5 mph 7 mph 54 % 0 in
17:07 83.7 °F 64.8 °F 30.1 in West 6 mph 11 mph 53 % 0 in
17:12 83.7 °F 64.8 °F 30.1 in West 2 mph 11 mph 53 % 0 in
17:17 83.7 °F 65.3 °F 30.1 in West 7 mph 11 mph 54 % 0 in
17:22 83.5 °F 65.1 °F 30 in WSW 6 mph 10 mph 54 % 0 in
17:27 83.5 °F 65.1 °F 30 in WSW 3 mph 10 mph 54 % 0 in
17:32 83.7 °F 65.3 °F 30 in SW 6 mph 10 mph 54 % 0 in
17:37 83.8 °F 64.9 °F 30 in SW 2 mph 10 mph 53 % 0 in
17:42 84.2 °F 65.3 °F 30 in West 7 mph 10 mph 53 % 0 in
17:47 84.2 °F 65.7 °F 30 in WSW 6 mph 9 mph 54 % 0 in
17:52 84.4 °F 65.3 °F 30 in West 6 mph 10 mph 53 % 0 in
17:57 84.4 °F 64.2 °F 30 in WSW 5 mph 11 mph 51 % 0 in
18:02 84.4 °F 65.8 °F 30 in SW 8 mph 11 mph 54 % 0 in
18:07 84.4 °F 64.8 °F 30 in SW 4 mph 10 mph 52 % 0 in
18:12 84.6 °F 64.9 °F 30 in SW 5 mph 10 mph 52 % 0 in
18:17 84.6 °F 64.9 °F 30 in South 2 mph 10 mph 52 % 0 in
18:22 84.7 °F 67.8 °F 30 in SW 4 mph 10 mph 57 % 0 in
18:27 84.9 °F 67.5 °F 30 in SW 2 mph 8 mph 56 % 0 in
18:32 85.1 °F 66.6 °F 30 in SSW 4 mph 7 mph 54 % 0 in
18:37 84.9 °F 65.8 °F 30 in SW 4 mph 6 mph 53 % 0 in
18:42 84.7 °F 66.2 °F 30 in SW 3 mph 8 mph 54 % 0 in
18:47 84.7 °F 66.2 °F 30 in WSW 3 mph 8 mph 54 % 0 in
18:52 84.7 °F 66.7 °F 30 in WSW 3 mph 8 mph 55 % 0 in
18:57 84.6 °F 66 °F 30 in SW 4 mph 8 mph 54 % 0 in
19:02 84.7 °F 65.7 °F 30 in SW 6 mph 10 mph 53 % 0 in
19:07 84.7 °F 65.7 °F 30 in WSW 4 mph 10 mph 53 % 0 in
19:12 84.9 °F 66.9 °F 30 in SW 4 mph 9 mph 55 % 0 in
19:17 84.9 °F 66.4 °F 30 in SSW 3 mph 8 mph 54 % 0 in
19:22 84.9 °F 66.4 °F 30 in WSW 3 mph 8 mph 54 % 0 in
19:27 84.9 °F 66.9 °F 30 in WSW 4 mph 8 mph 55 % 0 in
19:32 84.9 °F 67.5 °F 30 in SW 6 mph 8 mph 56 % 0 in
19:37 84.7 °F 66.7 °F 30 in West 5 mph 9 mph 55 % 0 in
19:42 84.7 °F 66.7 °F 30 in WSW 4 mph 9 mph 55 % 0 in
19:47 84.7 °F 66.7 °F 30 in SW 3 mph 9 mph 55 % 0 in
19:52 84.7 °F 67.3 °F 30 in SW 4 mph 6 mph 56 % 0 in
19:57 84.7 °F 67.3 °F 30 in SW 1 mph 6 mph 56 % 0 in
20:02 84.6 °F 67.1 °F 30 in SSW 3 mph 6 mph 56 % 0 in
20:07 84.6 °F 67.1 °F 30 in SW 4 mph 5 mph 56 % 0 in
20:12 84.2 °F 66.2 °F 30 in WSW 5 mph 7 mph 55 % 0 in
20:17 83.8 °F 66.4 °F 30 in SW 4 mph 8 mph 56 % 0 in
20:27 83.1 °F 66.4 °F 30 in SW 3 mph 8 mph 57 % 0 in
20:32 82.8 °F 66.9 °F 30 in SW 2 mph 6 mph 59 % 0 in
20:37 82.2 °F 67.5 °F 30 in SW 2 mph 6 mph 61 % 0 in
20:42 82 °F 67.3 °F 30 in SSW 2 mph 6 mph 61 % 0 in
20:47 81.7 °F 67.5 °F 30 in SW 3 mph 4 mph 62 % 0 in
20:52 81.3 °F 67.5 °F 30 in SSW 2 mph 4 mph 63 % 0 in
20:57 80.8 °F 68 °F 30 in SSW 1 mph 4 mph 65 % 0 in
21:02 80.2 °F 67.5 °F 30 in SSW 1 mph 4 mph 65 % 0 in
21:07 79.9 °F 68 °F 30 in SW 2 mph 3 mph 67 % 0 in
21:12 79.5 °F 67.6 °F 30 in SW 2 mph 2 mph 67 % 0 in
21:17 79.7 °F 66.9 °F 30 in SW 3 mph 3 mph 65 % 0 in
21:22 79.9 °F 67.1 °F 30 in SW 3 mph 3 mph 65 % 0 in
21:27 79.9 °F 67.1 °F 30 in SSW 3 mph 5 mph 65 % 0 in
21:32 79.5 °F 66.7 °F 30 in WSW 3 mph 5 mph 65 % 0 in
21:37 79.7 °F 66.9 °F 30 in SW 3 mph 5 mph 65 % 0 in
21:42 79.5 °F 67.1 °F 30 in SW 4 mph 5 mph 66 % 0 in
21:47 79.2 °F 66.7 °F 30 in SW 4 mph 5 mph 66 % 0 in
21:52 79 °F 67.1 °F 30 in SW 4 mph 5 mph 67 % 0 in
21:57 78.6 °F 67.1 °F 30 in SW 3 mph 5 mph 68 % 0 in
22:02 78.6 °F 66.7 °F 30 in SW 3 mph 5 mph 67 % 0 in
22:12 78.8 °F 66.9 °F 30 in WSW 2 mph 6 mph 67 % 0 in
22:17 77.9 °F 67.3 °F 30 in WSW 1 mph 6 mph 70 % 0 in
22:22 77.4 °F 67.3 °F 30 in West 1 mph 6 mph 71 % 0 in
22:27 76.8 °F 67.1 °F 30 in WSW 1 mph 5 mph 72 % 0 in
22:32 76.8 °F 67.1 °F 30 in Calm   4 mph 72 % 0 in
22:37 76.6 °F 66.9 °F 30 in West 2 mph 3 mph 72 % 0 in
22:42 76.8 °F 67.1 °F 30 in WSW 2 mph 3 mph 72 % 0 in
22:47 76.8 °F 67.1 °F 30 in Calm   3 mph 72 % 0 in
22:52 75.9 °F 67.1 °F 30 in Calm   3 mph 74 % 0 in
22:57 75 °F 66.9 °F 30 in Calm   3 mph 76 % 0 in
23:02 74.7 °F 66.9 °F 30 in Calm   1 mph 77 % 0 in
23:07 73.9 °F 67.1 °F 30 in Calm   2 mph 79 % 0 in
23:12 73.6 °F 66.7 °F 30 in Calm   2 mph 79 % 0 in
23:17 73.2 °F 66.7 °F 30 in Calm   2 mph 80 % 0 in
23:27 72.9 °F 66.7 °F 30 in Calm     81 % 0 in
23:32 72.3 °F 66.6 °F 30 in Calm     82 % 0 in
23:37 72 °F 66.2 °F 30 in Calm     82 % 0 in
23:42 71.8 °F 66.4 °F 30 in Calm     83 % 0 in
23:47 71.8 °F 66.4 °F 30 in Calm     83 % 0 in
23:52 72 °F 66.6 °F 30 in Calm   1 mph 83 % 0 in
23:57 72 °F 66.2 °F 30 in Calm   1 mph 82 % 0 in
Meteo18
Compliments of Weather Underground - 4 mb

Script developed by  Jim McMurry - jmcmurry@mwt.net Adapted for the template by  Wim van der Kuil - Leuven-Template.eu

You find our weather info also at:

European Weather Network

Weather Underground

Equipment we use:

Weather-station
Davis Vue

Weather-program
Meteohub

Weather-server
Raspberry PI 2 B+

Provider
1 and 1

Davis Vue

Meteohub

Raspberry PI 2 B+

1 and 1